Hlavní strana
METAR-TAF:

METAR-TAF

Letiště :

Kuvajt, Kuvajt

zeměpisná šířka: 29-13N, zeměpisná délka: 047-59E, výška: 55 m

Aktuální stav počasí

Zpráva byla vytvořena před 27 minutami, v 16:00 UTC
Jihojihovýchodní vítr 5 kt
Teplota 28°C
Vlhkost vzduchu 25%
Tlak 1011 hPa
Viditelnost 10 km a více
Žádná oblačnost pod 1500 m, nevyskytují se cumulonimby.

METAR: OKBK 251600Z 16005KT CAVOK 28/06 Q1011 NOSIG

Čas: 19:27 (16:27 UTC)

Předpověď počasí

Zpráva byla vytvořena před 17 hodinami a 42 minutami, v 22:45 UTC
Předpověď platná od 25 v 00 UTC do 26 v 06 UTC
Západní vítr 8 kt s nárazy do 18 kt
Viditelnost: 6000 m
Polojasno ve výšce 4000 ft
Změna
od 25 v 03 UTC do 25 v 05 UTC
Severoseverovýchodní vítr 12 kt

TAF: OKBK 242245Z 2500/2606 26008G18KT 6000 SCT040 BECMG 2503/2505 02012KT

Stav a předpovědi počasí z více než 4 000 letišť (zprávy METAR a TAF).

Červené a žluté tečky na mapě představují dostupné meteorologické stanice.

Když kurzor umístíte na tečku, zobrazí se název stanice.

Pak kliknutím zobrazíte stav a předpověď počasí.

Chcete-li změnit mapu, kliknutím na zelené tlačítko se znaménkem +mapu přiblížíte, kliknutím na zelené tlačítko se znaménkem – mapu oddálíte a kliknutím na zelené šipky přejdete na sousední mapy.


METAR-TAF: